createdAt,value
2024-01-05T00:00:00.936Z,4.19
2024-01-05T00:01:00.934Z,4.18
2024-01-05T00:02:00.813Z,4.18
2024-01-05T00:03:02.295Z,4.17
2024-01-05T00:04:00.838Z,4.16
2024-01-05T00:05:00.744Z,4.16
2024-01-05T00:06:00.889Z,4.17
2024-01-05T00:07:01.850Z,4.17
2024-01-05T00:08:00.727Z,4.18
2024-01-05T00:09:01.225Z,4.17
2024-01-05T00:10:00.745Z,4.17
2024-01-05T00:11:00.663Z,4.15
2024-01-05T00:12:03.372Z,4.13
2024-01-05T00:13:00.741Z,4.12
2024-01-05T00:14:00.852Z,4.11
2024-01-05T00:15:00.784Z,4.11
2024-01-05T00:16:00.765Z,4.11
2024-01-05T00:17:00.800Z,4.12
2024-01-05T00:18:00.872Z,4.14
2024-01-05T00:19:00.995Z,4.15
2024-01-05T00:20:00.720Z,4.16
2024-01-05T00:21:00.837Z,4.18
2024-01-05T00:22:01.025Z,4.20
2024-01-05T00:23:00.707Z,4.21
2024-01-05T00:24:00.819Z,4.22
2024-01-05T00:25:01.411Z,4.23
2024-01-05T00:26:00.473Z,4.25
2024-01-05T00:27:00.628Z,4.27
2024-01-05T00:28:00.681Z,4.28
2024-01-05T00:29:00.522Z,4.28
2024-01-05T00:30:01.646Z,4.27
2024-01-05T00:31:01.443Z,4.27
2024-01-05T00:32:00.850Z,4.26
2024-01-05T00:33:01.419Z,4.25
2024-01-05T00:34:00.817Z,4.25
2024-01-05T00:35:01.272Z,4.26
2024-01-05T00:36:00.708Z,4.27
2024-01-05T00:37:00.799Z,4.29
2024-01-05T00:38:02.152Z,4.29
2024-01-05T00:39:02.157Z,4.30
2024-01-05T00:40:01.605Z,4.31
2024-01-05T00:41:02.224Z,4.31
2024-01-05T00:42:01.490Z,4.31
2024-01-05T00:43:01.400Z,4.31
2024-01-05T00:44:02.212Z,4.31
2024-01-05T00:45:01.804Z,4.30
2024-01-05T00:46:04.032Z,4.29
2024-01-05T00:47:00.659Z,4.28
2024-01-05T00:48:01.037Z,4.29
2024-01-05T00:49:02.649Z,4.31
2024-01-05T00:50:01.146Z,4.32
2024-01-05T00:51:00.567Z,4.32
2024-01-05T00:52:00.403Z,4.33
2024-01-05T00:53:00.923Z,4.33
2024-01-05T00:54:00.492Z,4.33
2024-01-05T00:55:00.299Z,4.33
2024-01-05T00:56:00.187Z,4.34
2024-01-05T00:57:00.069Z,4.34
2024-01-05T00:58:00.886Z,4.35
2024-01-05T00:59:01.154Z,4.35
2024-01-05T01:00:00.916Z,4.36
2024-01-05T01:01:00.174Z,4.36
2024-01-05T01:02:01.414Z,4.36
2024-01-05T01:03:00.863Z,4.36
2024-01-05T01:04:00.114Z,4.36
2024-01-05T01:05:01.047Z,4.34
2024-01-05T01:06:00.836Z,4.33
2024-01-05T01:07:01.275Z,4.31
2024-01-05T01:08:00.633Z,4.28
2024-01-05T01:09:00.224Z,4.26
2024-01-05T01:10:01.786Z,4.23
2024-01-05T01:11:00.489Z,4.21
2024-01-05T01:12:00.323Z,4.19
2024-01-05T01:13:01.193Z,4.17
2024-01-05T01:14:00.128Z,4.14
2024-01-05T01:15:02.053Z,4.12
2024-01-05T01:15:59.845Z,4.10
2024-01-05T01:17:00.062Z,4.08
2024-01-05T01:18:00.846Z,4.06
2024-01-05T01:19:00.055Z,4.04
2024-01-05T01:20:00.334Z,4.00
2024-01-05T01:20:59.964Z,3.97
2024-01-05T01:21:59.848Z,3.94
2024-01-05T01:22:59.632Z,3.93
2024-01-05T01:23:59.688Z,3.91
2024-01-05T01:24:59.687Z,3.91
2024-01-05T01:25:59.753Z,3.91
2024-01-05T01:26:59.712Z,3.91
2024-01-05T01:27:59.842Z,3.91
2024-01-05T01:28:59.643Z,3.91
2024-01-05T01:29:59.706Z,3.90
2024-01-05T01:30:59.657Z,3.88
2024-01-05T01:31:59.549Z,3.87
2024-01-05T01:32:59.693Z,3.85
2024-01-05T01:33:59.939Z,3.84
2024-01-05T01:34:59.537Z,3.82
2024-01-05T01:35:59.785Z,3.80
2024-01-05T01:36:59.504Z,3.78
2024-01-05T01:37:59.537Z,3.76
2024-01-05T01:38:59.813Z,3.74
2024-01-05T01:39:59.516Z,3.73
2024-01-05T01:40:59.734Z,3.73
2024-01-05T01:41:59.601Z,3.74
2024-01-05T01:42:59.540Z,3.75
2024-01-05T01:43:59.486Z,3.75
2024-01-05T01:44:59.431Z,3.75
2024-01-05T01:45:59.411Z,3.74
2024-01-05T01:46:59.469Z,3.72
2024-01-05T01:47:59.630Z,3.71
2024-01-05T01:48:59.506Z,3.70
2024-01-05T01:49:59.542Z,3.70
2024-01-05T01:50:59.281Z,3.70
2024-01-05T01:51:59.301Z,3.71
2024-01-05T01:52:59.241Z,3.73
2024-01-05T01:53:59.260Z,3.76
2024-01-05T01:54:59.365Z,3.78
2024-01-05T01:55:59.298Z,3.80
2024-01-05T01:56:59.213Z,3.81
2024-01-05T01:57:59.177Z,3.80
2024-01-05T01:58:59.176Z,3.79
2024-01-05T01:59:59.154Z,3.77
2024-01-05T02:00:59.273Z,3.75
2024-01-05T02:01:59.124Z,3.74
2024-01-05T02:03:00.041Z,3.72
2024-01-05T02:03:59.400Z,3.69
2024-01-05T02:04:59.194Z,3.67
2024-01-05T02:05:59.457Z,3.66
2024-01-05T02:06:59.320Z,3.64
2024-01-05T02:07:59.416Z,3.63
2024-01-05T02:08:59.304Z,3.61
2024-01-05T02:09:59.835Z,3.60
2024-01-05T02:10:59.344Z,3.58
2024-01-05T02:11:59.744Z,3.56
2024-01-05T02:12:58.981Z,3.54
2024-01-05T02:13:59.025Z,3.53
2024-01-05T02:14:59.235Z,3.51
2024-01-05T02:15:59.686Z,3.50
2024-01-05T02:16:59.057Z,3.49
2024-01-05T02:17:59.306Z,3.47
2024-01-05T02:18:59.438Z,3.46
2024-01-05T02:19:59.957Z,3.45
2024-01-05T02:21:02.258Z,3.43
2024-01-05T02:22:01.611Z,3.42
2024-01-05T02:22:59.910Z,3.40
2024-01-05T02:23:59.446Z,3.39
2024-01-05T02:24:59.377Z,3.38
2024-01-05T02:26:02.879Z,3.38
2024-01-05T02:27:00.656Z,3.37
2024-01-05T02:27:59.207Z,3.37
2024-01-05T02:29:00.322Z,3.36
2024-01-05T02:30:00.798Z,3.34
2024-01-05T02:30:59.902Z,3.33
2024-01-05T02:32:00.011Z,3.31
2024-01-05T02:33:00.734Z,3.31
2024-01-05T02:34:00.433Z,3.30
2024-01-05T02:34:59.749Z,3.30
2024-01-05T02:36:01.129Z,3.31
2024-01-05T02:37:00.207Z,3.31
2024-01-05T02:38:00.132Z,3.30
2024-01-05T02:38:59.214Z,3.29
2024-01-05T02:39:59.745Z,3.28
2024-01-05T02:41:01.173Z,3.26
2024-01-05T02:42:00.284Z,3.25
2024-01-05T02:42:58.767Z,3.23
2024-01-05T02:43:58.690Z,3.22
2024-01-05T02:44:59.175Z,3.20
2024-01-05T02:45:58.915Z,3.19
2024-01-05T02:46:58.993Z,3.17
2024-01-05T02:47:58.992Z,3.17
2024-01-05T02:48:58.795Z,3.16
2024-01-05T02:49:58.930Z,3.16
2024-01-05T02:50:59.507Z,3.16
2024-01-05T02:51:58.712Z,3.15
2024-01-05T02:52:59.448Z,3.13
2024-01-05T02:53:58.636Z,3.12
2024-01-05T02:54:59.078Z,3.11
2024-01-05T02:56:00.208Z,3.11
2024-01-05T02:57:00.798Z,3.11
2024-01-05T02:57:58.656Z,3.11
2024-01-05T02:58:59.024Z,3.12
2024-01-05T02:59:58.690Z,3.12
2024-01-05T03:00:58.638Z,3.12
2024-01-05T03:01:58.867Z,3.12
2024-01-05T03:02:58.933Z,3.12
2024-01-05T03:03:59.702Z,3.13
2024-01-05T03:04:59.605Z,3.14
2024-01-05T03:05:59.236Z,3.14
2024-01-05T03:06:59.614Z,3.15
2024-01-05T03:07:59.157Z,3.15
2024-01-05T03:08:58.627Z,3.15
2024-01-05T03:09:58.594Z,3.14
2024-01-05T03:10:58.382Z,3.12
2024-01-05T03:11:59.616Z,3.09
2024-01-05T03:12:58.689Z,3.07
2024-01-05T03:13:58.491Z,3.06
2024-01-05T03:14:58.596Z,3.05
2024-01-05T03:15:58.346Z,3.05
2024-01-05T03:16:58.533Z,3.04
2024-01-05T03:17:58.422Z,3.03
2024-01-05T03:18:59.557Z,3.02
2024-01-05T03:19:58.899Z,3.02
2024-01-05T03:21:01.412Z,3.02
2024-01-05T03:21:59.421Z,3.02
2024-01-05T03:22:58.680Z,3.03
2024-01-05T03:24:00.633Z,3.04
2024-01-05T03:24:59.297Z,3.05
2024-01-05T03:25:58.173Z,3.07
2024-01-05T03:26:58.410Z,3.09
2024-01-05T03:27:59.869Z,3.10
2024-01-05T03:28:59.834Z,3.10
2024-01-05T03:29:58.748Z,3.10
2024-01-05T03:30:58.971Z,3.10
2024-01-05T03:31:58.275Z,3.10
2024-01-05T03:32:58.404Z,3.10
2024-01-05T03:33:58.282Z,3.09
2024-01-05T03:34:58.631Z,3.09
2024-01-05T03:35:58.247Z,3.08
2024-01-05T03:37:00.055Z,3.07
2024-01-05T03:37:58.208Z,3.07
2024-01-05T03:38:58.368Z,3.07
2024-01-05T03:39:57.965Z,3.06
2024-01-05T03:40:58.124Z,3.05
2024-01-05T03:41:57.986Z,3.04
2024-01-05T03:42:57.936Z,3.04
2024-01-05T03:43:58.189Z,3.03
2024-01-05T03:44:58.014Z,3.03
2024-01-05T03:45:58.040Z,3.03
2024-01-05T03:46:58.025Z,3.03
2024-01-05T03:47:58.234Z,3.04
2024-01-05T03:48:58.020Z,3.06
2024-01-05T03:49:58.407Z,3.08
2024-01-05T03:50:57.923Z,3.11
2024-01-05T03:51:57.904Z,3.13
2024-01-05T03:52:58.035Z,3.14
2024-01-05T03:53:58.002Z,3.15
2024-01-05T03:55:00.766Z,3.16
2024-01-05T03:55:58.111Z,3.17
2024-01-05T03:56:58.825Z,3.17
2024-01-05T03:57:58.415Z,3.16
2024-01-05T03:58:58.343Z,3.15
2024-01-05T03:59:59.355Z,3.15
2024-01-05T04:00:58.116Z,3.15
2024-01-05T04:01:57.854Z,3.17
2024-01-05T04:02:58.314Z,3.19
2024-01-05T04:03:58.381Z,3.22
2024-01-05T04:04:58.436Z,3.25
2024-01-05T04:05:58.007Z,3.28
2024-01-05T04:06:57.815Z,3.31
2024-01-05T04:07:57.719Z,3.34
2024-01-05T04:08:57.709Z,3.37
2024-01-05T04:09:57.700Z,3.41
2024-01-05T04:10:57.488Z,3.44
2024-01-05T04:11:57.852Z,3.46
2024-01-05T04:12:57.468Z,3.49
2024-01-05T04:13:57.392Z,3.51
2024-01-05T04:14:57.493Z,3.53
2024-01-05T04:15:57.490Z,3.55
2024-01-05T04:16:57.400Z,3.56
2024-01-05T04:17:57.500Z,3.57
2024-01-05T04:18:57.404Z,3.57
2024-01-05T04:19:57.707Z,3.57
2024-01-05T04:20:58.023Z,3.57
2024-01-05T04:21:57.401Z,3.57
2024-01-05T04:22:57.374Z,3.56
2024-01-05T04:23:58.331Z,3.55
2024-01-05T04:24:58.485Z,3.55
2024-01-05T04:25:57.536Z,3.54
2024-01-05T04:26:57.476Z,3.52
2024-01-05T04:27:58.032Z,3.48
2024-01-05T04:28:57.379Z,3.44
2024-01-05T04:29:57.301Z,3.40
2024-01-05T04:30:58.327Z,3.35
2024-01-05T04:31:57.513Z,3.30
2024-01-05T04:32:58.272Z,3.26
2024-01-05T04:33:58.601Z,3.22
2024-01-05T04:34:57.292Z,3.19
2024-01-05T04:35:58.102Z,3.17
2024-01-05T04:36:58.275Z,3.15
2024-01-05T04:37:57.360Z,3.15
2024-01-05T04:38:57.166Z,3.15
2024-01-05T04:39:57.208Z,3.17
2024-01-05T04:40:57.187Z,3.19
2024-01-05T04:41:57.857Z,3.20
2024-01-05T04:42:57.234Z,3.21
2024-01-05T04:43:58.350Z,3.21
2024-01-05T04:44:58.389Z,3.21
2024-01-05T04:45:57.198Z,3.19
2024-01-05T04:46:57.213Z,3.18
2024-01-05T04:47:57.060Z,3.17
2024-01-05T04:48:57.253Z,3.16
2024-01-05T04:49:58.810Z,3.16
2024-01-05T04:50:59.215Z,3.16
2024-01-05T04:51:58.034Z,3.15
2024-01-05T04:52:58.553Z,3.15
2024-01-05T04:53:57.417Z,3.14
2024-01-05T04:54:57.258Z,3.14
2024-01-05T04:55:57.783Z,3.14
2024-01-05T04:56:57.520Z,3.14
2024-01-05T04:57:56.925Z,3.16
2024-01-05T04:58:57.904Z,3.19
2024-01-05T04:59:57.590Z,3.23
2024-01-05T05:00:57.147Z,3.27
2024-01-05T05:01:57.107Z,3.31
2024-01-05T05:02:57.264Z,3.34
2024-01-05T05:03:57.126Z,3.37
2024-01-05T05:04:58.927Z,3.40
2024-01-05T05:05:56.901Z,3.43
2024-01-05T05:06:57.226Z,3.45
2024-01-05T05:07:56.873Z,3.47
2024-01-05T05:08:56.768Z,3.48
2024-01-05T05:09:56.742Z,3.49
2024-01-05T05:10:57.145Z,3.50
2024-01-05T05:11:56.848Z,3.51
2024-01-05T05:12:57.795Z,3.51
2024-01-05T05:13:57.031Z,3.50
2024-01-05T05:14:56.972Z,3.50
2024-01-05T05:15:57.547Z,3.50
2024-01-05T05:16:56.665Z,3.50
2024-01-05T05:17:57.509Z,3.49
2024-01-05T05:18:56.789Z,3.49
2024-01-05T05:19:57.156Z,3.48
2024-01-05T05:20:57.519Z,3.45
2024-01-05T05:21:59.729Z,3.43
2024-01-05T05:22:59.259Z,3.41
2024-01-05T05:23:57.890Z,3.39
2024-01-05T05:24:56.686Z,3.37
2024-01-05T05:25:56.680Z,3.34
2024-01-05T05:26:56.840Z,3.31
2024-01-05T05:29:07.340Z,4.36
2024-01-05T05:30:08.399Z,3.91
2024-01-05T05:31:08.373Z,3.61
2024-01-05T05:32:08.284Z,3.45
2024-01-05T05:33:08.347Z,3.37
2024-01-05T05:34:08.371Z,3.33
2024-01-05T05:35:08.253Z,3.31
2024-01-05T05:36:08.261Z,3.29
2024-01-05T05:37:08.228Z,3.27
2024-01-05T05:38:08.497Z,3.26
2024-01-05T05:39:08.285Z,3.25
2024-01-05T05:40:08.196Z,3.25
2024-01-05T05:41:08.174Z,3.24
2024-01-05T05:42:08.187Z,3.24
2024-01-05T05:43:08.158Z,3.23
2024-01-05T05:44:08.141Z,3.23
2024-01-05T05:45:08.249Z,3.24
2024-01-05T05:46:08.099Z,3.26
2024-01-05T05:47:08.120Z,3.27
2024-01-05T05:48:08.161Z,3.28
2024-01-05T05:49:08.276Z,3.29
2024-01-05T05:50:08.071Z,3.29
2024-01-05T05:51:08.078Z,3.29
2024-01-05T05:52:08.029Z,3.27
2024-01-05T05:53:08.040Z,3.25
2024-01-05T05:54:08.073Z,3.22
2024-01-05T05:55:07.992Z,3.19
2024-01-05T05:56:07.995Z,3.19
2024-01-05T05:57:07.988Z,3.20
2024-01-05T05:58:07.976Z,3.22
2024-01-05T05:59:07.943Z,3.23
2024-01-05T06:00:07.944Z,3.24
2024-01-05T06:01:07.929Z,3.25
2024-01-05T06:02:07.900Z,3.25
2024-01-05T06:03:10.058Z,3.26
2024-01-05T06:04:07.928Z,3.25
2024-01-05T06:05:07.857Z,3.24
2024-01-05T06:06:07.867Z,3.24
2024-01-05T06:07:07.848Z,3.23
2024-01-05T06:08:07.829Z,3.23
2024-01-05T06:09:07.824Z,3.23
2024-01-05T06:10:07.962Z,3.23
2024-01-05T06:11:07.801Z,3.23
2024-01-05T06:12:07.935Z,3.22
2024-01-05T06:13:07.779Z,3.22
2024-01-05T06:14:08.000Z,3.23
2024-01-05T06:15:07.762Z,3.25
2024-01-05T06:16:07.702Z,3.28
2024-01-05T06:17:07.742Z,3.31
2024-01-05T06:18:07.858Z,3.33
2024-01-05T06:19:07.756Z,3.34
2024-01-05T06:20:07.765Z,3.34
2024-01-05T06:21:07.696Z,3.35
2024-01-05T06:22:07.673Z,3.35
2024-01-05T06:23:07.674Z,3.35
2024-01-05T06:24:07.665Z,3.35
2024-01-05T06:25:07.611Z,3.33
2024-01-05T06:26:07.619Z,3.33
2024-01-05T06:27:07.726Z,3.33
2024-01-05T06:28:07.613Z,3.34
2024-01-05T06:29:07.573Z,3.35
2024-01-05T06:30:07.647Z,3.36
2024-01-05T06:31:07.624Z,3.36
2024-01-05T06:32:07.498Z,3.35
2024-01-05T06:33:07.608Z,3.34
2024-01-05T06:34:07.568Z,3.33
2024-01-05T06:35:07.482Z,3.32
2024-01-05T06:36:07.467Z,3.32
2024-01-05T06:37:07.446Z,3.32
2024-01-05T06:38:07.416Z,3.33
2024-01-05T06:39:07.443Z,3.34
2024-01-05T06:40:07.422Z,3.34
2024-01-05T06:41:07.381Z,3.34
2024-01-05T06:42:09.249Z,3.36
2024-01-05T06:43:07.379Z,3.38
2024-01-05T06:44:07.338Z,3.40
2024-01-05T06:45:07.360Z,3.42
2024-01-05T06:46:07.337Z,3.43
2024-01-05T06:47:07.346Z,3.43
2024-01-05T06:48:07.637Z,3.43
2024-01-05T06:49:07.464Z,3.41
2024-01-05T06:50:07.503Z,3.39
2024-01-05T06:51:07.301Z,3.39
2024-01-05T06:52:07.337Z,3.39
2024-01-05T06:53:07.237Z,3.40
2024-01-05T06:54:07.377Z,3.41
2024-01-05T06:55:07.334Z,3.43
2024-01-05T06:56:07.516Z,3.45
2024-01-05T06:57:07.280Z,3.47
2024-01-05T06:58:07.223Z,3.48
2024-01-05T06:59:07.165Z,3.50
2024-01-05T07:00:07.469Z,3.50
2024-01-05T07:01:07.452Z,3.51
2024-01-05T07:02:07.288Z,3.52
2024-01-05T07:03:08.822Z,3.52
2024-01-05T07:04:07.240Z,3.53
2024-01-05T07:05:08.243Z,3.53
2024-01-05T07:06:15.274Z,3.53
2024-01-05T07:07:10.263Z,3.53
2024-01-05T07:08:07.218Z,3.51
2024-01-05T07:09:07.624Z,3.50
2024-01-05T07:10:07.157Z,3.47
2024-01-05T07:11:07.632Z,3.45
2024-01-05T07:12:09.173Z,3.44
2024-01-05T07:13:09.616Z,3.41
2024-01-05T07:14:07.170Z,3.38
2024-01-05T07:15:10.215Z,3.36
2024-01-05T07:16:10.046Z,3.35
2024-01-05T07:17:12.662Z,3.34
2024-01-05T07:18:07.867Z,3.34
2024-01-05T07:19:07.186Z,3.34
2024-01-05T07:20:06.889Z,3.34
2024-01-05T07:21:06.903Z,3.35
2024-01-05T07:22:06.870Z,3.36
2024-01-05T07:23:06.846Z,3.36
2024-01-05T07:24:06.923Z,3.37
2024-01-05T07:25:06.816Z,3.39
2024-01-05T07:26:06.797Z,3.40
2024-01-05T07:27:07.025Z,3.42
2024-01-05T07:28:06.790Z,3.43
2024-01-05T07:29:06.797Z,3.44
2024-01-05T07:30:07.065Z,3.44
2024-01-05T07:31:07.250Z,3.43
2024-01-05T07:32:09.746Z,3.42
2024-01-05T07:33:13.218Z,3.39
2024-01-05T07:34:10.256Z,3.36
2024-01-05T07:35:07.082Z,3.33
2024-01-05T07:36:09.160Z,3.31
2024-01-05T07:37:06.742Z,3.31
2024-01-05T07:38:08.325Z,3.31
2024-01-05T07:39:09.034Z,3.32
2024-01-05T07:40:07.968Z,3.34
2024-01-05T07:41:06.729Z,3.36
2024-01-05T07:42:11.398Z,3.38
2024-01-05T07:43:20.284Z,3.40
2024-01-05T07:44:08.603Z,3.41
2024-01-05T07:45:08.421Z,3.43
2024-01-05T07:46:07.078Z,3.46
2024-01-05T07:47:11.229Z,3.48
2024-01-05T07:48:08.646Z,3.50
2024-01-05T07:49:06.691Z,3.51
2024-01-05T07:50:06.717Z,3.52
2024-01-05T07:51:07.991Z,3.54
2024-01-05T07:52:06.957Z,3.55
2024-01-05T07:53:07.243Z,3.57
2024-01-05T07:54:09.393Z,3.58
2024-01-05T07:55:07.535Z,3.58
2024-01-05T07:56:09.829Z,3.58
2024-01-05T07:57:07.126Z,3.57
2024-01-05T07:58:06.635Z,3.57
2024-01-05T07:59:09.652Z,3.57
2024-01-05T08:00:06.757Z,3.57
2024-01-05T08:01:06.417Z,3.58
2024-01-05T08:02:06.466Z,3.58
2024-01-05T08:03:06.639Z,3.59
2024-01-05T08:04:06.586Z,3.59
2024-01-05T08:05:07.539Z,3.60
2024-01-05T08:06:06.728Z,3.62
2024-01-05T08:07:06.438Z,3.63
2024-01-05T08:08:06.605Z,3.65
2024-01-05T08:09:06.364Z,3.66
2024-01-05T08:10:06.482Z,3.67
2024-01-05T08:11:06.378Z,3.68
2024-01-05T08:12:06.556Z,3.69
2024-01-05T08:13:08.128Z,3.70
2024-01-05T08:14:07.005Z,3.71
2024-01-05T08:15:08.666Z,3.71
2024-01-05T08:16:08.052Z,3.70
2024-01-05T08:17:06.370Z,3.70
2024-01-05T08:18:07.202Z,3.70
2024-01-05T08:19:06.403Z,3.70
2024-01-05T08:20:06.200Z,3.70
2024-01-05T08:21:06.243Z,3.69
2024-01-05T08:22:06.195Z,3.69
2024-01-05T08:23:06.166Z,3.69
2024-01-05T08:24:06.169Z,3.68
2024-01-05T08:25:06.136Z,3.67
2024-01-05T08:26:06.141Z,3.66
2024-01-05T08:27:06.259Z,3.66
2024-01-05T08:28:06.189Z,3.66
2024-01-05T08:29:06.090Z,3.66
2024-01-05T08:30:06.329Z,3.67
2024-01-05T08:31:06.161Z,3.68
2024-01-05T08:32:06.044Z,3.68
2024-01-05T08:33:06.260Z,3.66
2024-01-05T08:34:06.464Z,3.64
2024-01-05T08:35:06.377Z,3.63
2024-01-05T08:36:05.989Z,3.62
2024-01-05T08:37:05.949Z,3.61
2024-01-05T08:38:06.073Z,3.60
2024-01-05T08:39:06.002Z,3.60
2024-01-05T08:40:05.958Z,3.60
2024-01-05T08:41:06.232Z,3.60
2024-01-05T08:42:05.926Z,3.62
2024-01-05T08:43:06.015Z,3.65
2024-01-05T08:44:06.002Z,3.67
2024-01-05T08:45:06.048Z,3.70
2024-01-05T08:46:05.872Z,3.72
2024-01-05T08:47:05.876Z,3.73
2024-01-05T08:48:05.876Z,3.75
2024-01-05T08:49:06.037Z,3.75
2024-01-05T08:50:05.958Z,3.77
2024-01-05T08:51:05.850Z,3.78
2024-01-05T08:52:05.831Z,3.80
2024-01-05T08:53:05.775Z,3.81
2024-01-05T08:54:06.393Z,3.81
2024-01-05T08:55:05.733Z,3.82
2024-01-05T08:56:05.762Z,3.83
2024-01-05T08:57:05.801Z,3.85
2024-01-05T08:58:05.748Z,3.87
2024-01-05T08:59:05.712Z,3.89
2024-01-05T09:00:05.818Z,3.90
2024-01-05T09:01:05.862Z,3.92
2024-01-05T09:02:05.890Z,3.93
2024-01-05T09:03:05.730Z,3.94
2024-01-05T09:04:05.647Z,3.96
2024-01-05T09:05:06.476Z,3.97
2024-01-05T09:06:05.908Z,3.98
2024-01-05T09:07:05.774Z,3.99
2024-01-05T09:08:05.580Z,3.99
2024-01-05T09:09:06.164Z,4.00
2024-01-05T09:10:05.746Z,4.00
2024-01-05T09:11:05.559Z,4.00
2024-01-05T09:12:05.596Z,4.00
2024-01-05T09:13:05.552Z,4.01
2024-01-05T09:14:05.502Z,4.02
2024-01-05T09:15:05.528Z,4.03
2024-01-05T09:16:05.584Z,4.04
2024-01-05T09:17:05.469Z,4.05
2024-01-05T09:18:05.554Z,4.07
2024-01-05T09:19:05.481Z,4.08
2024-01-05T09:20:05.475Z,4.09
2024-01-05T09:21:05.480Z,4.10
2024-01-05T09:22:05.653Z,4.11
2024-01-05T09:23:05.561Z,4.12
2024-01-05T09:24:05.923Z,4.13
2024-01-05T09:25:05.426Z,4.16
2024-01-05T09:26:05.403Z,4.18
2024-01-05T09:27:05.376Z,4.21
2024-01-05T09:28:05.332Z,4.22
2024-01-05T09:29:05.326Z,4.24
2024-01-05T09:30:05.540Z,4.25
2024-01-05T09:31:05.452Z,4.26
2024-01-05T09:32:05.275Z,4.26
2024-01-05T09:33:05.694Z,4.27
2024-01-05T09:34:05.511Z,4.28
2024-01-05T09:35:05.233Z,4.29
2024-01-05T09:36:05.478Z,4.30
2024-01-05T09:37:05.397Z,4.32
2024-01-05T09:38:05.199Z,4.33
2024-01-05T09:39:05.170Z,4.34
2024-01-05T09:40:05.151Z,4.35
2024-01-05T09:41:05.195Z,4.37
2024-01-05T09:42:05.152Z,4.38
2024-01-05T09:43:05.104Z,4.40
2024-01-05T09:44:05.121Z,4.41
2024-01-05T09:45:05.160Z,4.44
2024-01-05T09:46:05.066Z,4.46
2024-01-05T09:47:05.022Z,4.48
2024-01-05T09:48:05.261Z,4.50
2024-01-05T09:49:05.395Z,4.52
2024-01-05T09:50:05.118Z,4.54
2024-01-05T09:51:05.058Z,4.56
2024-01-05T09:52:04.962Z,4.57
2024-01-05T09:53:04.950Z,4.58
2024-01-05T09:54:05.007Z,4.60
2024-01-05T09:55:04.956Z,4.62
2024-01-05T09:56:04.938Z,4.65
2024-01-05T09:57:05.060Z,4.66
2024-01-05T09:58:04.992Z,4.68
2024-01-05T09:59:04.964Z,4.70
2024-01-05T10:00:05.023Z,4.72
2024-01-05T10:01:05.234Z,4.73
2024-01-05T10:02:04.907Z,4.74
2024-01-05T10:03:04.906Z,4.76
2024-01-05T10:04:05.441Z,4.77
2024-01-05T10:05:05.515Z,4.78
2024-01-05T10:06:04.945Z,4.80
2024-01-05T10:07:05.067Z,4.82
2024-01-05T10:08:04.818Z,4.83
2024-01-05T10:09:04.794Z,4.84
2024-01-05T10:10:04.774Z,4.86
2024-01-05T10:11:04.743Z,4.87
2024-01-05T10:12:04.754Z,4.89
2024-01-05T10:13:04.825Z,4.90
2024-01-05T10:14:04.733Z,4.92
2024-01-05T10:15:04.712Z,4.94
2024-01-05T10:16:04.762Z,4.96
2024-01-05T10:17:04.677Z,4.97
2024-01-05T10:18:04.822Z,4.99
2024-01-05T10:19:04.797Z,5.01
2024-01-05T10:20:04.758Z,5.02
2024-01-05T10:21:04.648Z,5.04
2024-01-05T10:22:04.643Z,5.06
2024-01-05T10:23:04.680Z,5.08
2024-01-05T10:24:04.668Z,5.09
2024-01-05T10:25:04.568Z,5.11
2024-01-05T10:26:04.748Z,5.12
2024-01-05T10:27:05.501Z,5.14
2024-01-05T10:28:04.638Z,5.16
2024-01-05T10:29:05.442Z,5.18
2024-01-05T10:30:04.563Z,5.19
2024-01-05T10:31:04.631Z,5.21
2024-01-05T10:32:05.465Z,5.23
2024-01-05T10:33:04.836Z,5.24
2024-01-05T10:34:04.564Z,5.25
2024-01-05T10:35:04.668Z,5.27
2024-01-05T10:36:04.521Z,5.28
2024-01-05T10:37:04.406Z,5.29
2024-01-05T10:38:04.410Z,5.30
2024-01-05T10:39:04.451Z,5.31
2024-01-05T10:40:04.377Z,5.32
2024-01-05T10:41:04.346Z,5.33
2024-01-05T10:42:04.388Z,5.34
2024-01-05T10:43:04.363Z,5.35
2024-01-05T10:44:04.347Z,5.36
2024-01-05T10:45:04.403Z,5.37
2024-01-05T10:46:04.264Z,5.38
2024-01-05T10:47:04.295Z,5.39
2024-01-05T10:48:04.467Z,5.40
2024-01-05T10:49:04.396Z,5.41
2024-01-05T10:50:04.289Z,5.41
2024-01-05T10:51:04.223Z,5.42
2024-01-05T10:52:04.187Z,5.44
2024-01-05T10:53:04.175Z,5.45
2024-01-05T10:54:04.964Z,5.46
2024-01-05T10:55:05.255Z,5.46
2024-01-05T10:56:04.217Z,5.47
2024-01-05T10:57:04.207Z,5.48
2024-01-05T10:58:04.135Z,5.49
2024-01-05T10:59:04.100Z,5.50
2024-01-05T11:00:04.261Z,5.52
2024-01-05T11:01:04.199Z,5.54
2024-01-05T11:02:04.094Z,5.55
2024-01-05T11:03:04.189Z,5.57
2024-01-05T11:04:04.204Z,5.59
2024-01-05T11:05:04.166Z,5.61
2024-01-05T11:06:04.210Z,5.63
2024-01-05T11:07:04.125Z,5.65
2024-01-05T11:08:04.036Z,5.66
2024-01-05T11:09:04.060Z,5.67
2024-01-05T11:10:03.943Z,5.68
2024-01-05T11:11:03.947Z,5.70
2024-01-05T11:12:04.046Z,5.71
2024-01-05T11:13:03.941Z,5.72
2024-01-05T11:14:03.977Z,5.73
2024-01-05T11:15:03.975Z,5.74
2024-01-05T11:16:03.895Z,5.76
2024-01-05T11:17:03.860Z,5.77
2024-01-05T11:18:04.035Z,5.78
2024-01-05T11:19:03.898Z,5.80
2024-01-05T11:20:03.916Z,5.81
2024-01-05T11:21:03.959Z,5.83
2024-01-05T11:22:03.915Z,5.85
2024-01-05T11:23:03.831Z,5.86
2024-01-05T11:24:03.983Z,5.88
2024-01-05T11:25:03.920Z,5.90
2024-01-05T11:26:03.744Z,5.92
2024-01-05T11:27:03.824Z,5.93
2024-01-05T11:28:04.014Z,5.95
2024-01-05T11:29:10.291Z,5.96
2024-01-05T11:30:03.800Z,5.97
2024-01-05T11:31:03.771Z,5.98
2024-01-05T11:32:03.657Z,6.00
2024-01-05T11:33:03.737Z,6.01
2024-01-05T11:34:03.729Z,6.01
2024-01-05T11:35:03.753Z,6.01
2024-01-05T11:36:03.612Z,6.01
2024-01-05T11:37:03.651Z,6.01
2024-01-05T11:38:03.544Z,6.02
2024-01-05T11:39:03.617Z,6.02
2024-01-05T11:40:03.518Z,6.03
2024-01-05T11:41:03.522Z,6.04
2024-01-05T11:42:03.552Z,6.05
2024-01-05T11:43:03.509Z,6.07
2024-01-05T11:44:03.463Z,6.09
2024-01-05T11:45:03.481Z,6.11
2024-01-05T11:46:03.448Z,6.13
2024-01-05T11:47:03.452Z,6.15
2024-01-05T11:48:03.586Z,6.18
2024-01-05T11:49:03.461Z,6.21
2024-01-05T11:50:03.390Z,6.23
2024-01-05T11:51:03.471Z,6.26
2024-01-05T11:52:03.354Z,6.29
2024-01-05T11:53:03.399Z,6.31
2024-01-05T11:54:03.440Z,6.33
2024-01-05T11:55:03.340Z,6.35
2024-01-05T11:56:03.307Z,6.37
2024-01-05T11:57:03.338Z,6.38
2024-01-05T11:58:03.308Z,6.39
2024-01-05T11:59:03.272Z,6.41
2024-01-05T12:00:03.343Z,6.42
2024-01-05T12:01:03.410Z,6.42
2024-01-05T12:02:03.237Z,6.42
2024-01-05T12:03:03.309Z,6.43
2024-01-05T12:04:03.295Z,6.43
2024-01-05T12:05:03.308Z,6.44
2024-01-05T12:06:03.359Z,6.45
2024-01-05T12:07:03.210Z,6.46
2024-01-05T12:08:03.156Z,6.48
2024-01-05T12:09:03.225Z,6.50
2024-01-05T12:10:03.129Z,6.51
2024-01-05T12:11:03.120Z,6.52
2024-01-05T12:12:03.122Z,6.53
2024-01-05T12:13:03.111Z,6.54
2024-01-05T12:14:03.074Z,6.55
2024-01-05T12:15:03.080Z,6.55
2024-01-05T12:16:03.231Z,6.55
2024-01-05T12:17:03.036Z,6.55
2024-01-05T12:18:03.181Z,6.55
2024-01-05T12:19:03.200Z,6.55
2024-01-05T12:20:03.128Z,6.56
2024-01-05T12:21:03.003Z,6.56
2024-01-05T12:22:02.993Z,6.56
2024-01-05T12:23:02.967Z,6.56
2024-01-05T12:24:03.125Z,6.56
2024-01-05T12:25:02.929Z,6.56
2024-01-05T12:26:02.920Z,6.55
2024-01-05T12:27:02.961Z,6.55
2024-01-05T12:28:02.910Z,6.55
2024-01-05T12:29:02.925Z,6.55
2024-01-05T12:30:02.916Z,6.56
2024-01-05T12:31:03.055Z,6.56
2024-01-05T12:32:02.838Z,6.57
2024-01-05T12:33:03.006Z,6.58
2024-01-05T12:34:03.012Z,6.58
2024-01-05T12:35:02.843Z,6.58
2024-01-05T12:36:03.330Z,6.59
2024-01-05T12:37:02.801Z,6.59
2024-01-05T12:38:02.748Z,6.59
2024-01-05T12:39:02.803Z,6.60
2024-01-05T12:40:02.730Z,6.60
2024-01-05T12:41:02.732Z,6.60
2024-01-05T12:42:02.750Z,6.61
2024-01-05T12:43:02.699Z,6.61
2024-01-05T12:44:02.696Z,6.62
2024-01-05T12:45:02.721Z,6.62
2024-01-05T12:46:02.635Z,6.63
2024-01-05T12:47:02.638Z,6.65
2024-01-05T12:48:02.774Z,6.67
2024-01-05T12:49:02.840Z,6.70
2024-01-05T12:50:02.670Z,6.72
2024-01-05T12:51:02.615Z,6.75
2024-01-05T12:52:02.573Z,6.77
2024-01-05T12:53:02.549Z,6.78
2024-01-05T12:54:03.114Z,6.80
2024-01-05T12:55:02.594Z,6.81
2024-01-05T12:56:02.509Z,6.82
2024-01-05T12:57:02.539Z,6.83
2024-01-05T12:58:02.484Z,6.84
2024-01-05T12:59:02.517Z,6.86
2024-01-05T13:00:02.512Z,6.87
2024-01-05T13:01:02.536Z,6.88
2024-01-05T13:02:02.434Z,6.90
2024-01-05T13:03:02.448Z,6.91
2024-01-05T13:04:02.661Z,6.92
2024-01-05T13:05:02.435Z,6.93
2024-01-05T13:06:02.448Z,6.93
2024-01-05T13:07:02.427Z,6.93
2024-01-05T13:08:02.374Z,6.93
2024-01-05T13:09:02.465Z,6.93
2024-01-05T13:10:02.344Z,6.92
2024-01-05T13:11:02.350Z,6.92
2024-01-05T13:12:02.461Z,6.91
2024-01-05T13:13:02.309Z,6.91
2024-01-05T13:14:02.294Z,6.91
2024-01-05T13:15:02.304Z,6.92
2024-01-05T13:16:02.255Z,6.92
2024-01-05T13:17:02.405Z,6.93
2024-01-05T13:18:02.473Z,6.93
2024-01-05T13:19:02.346Z,6.93